sensor_id;sensor_type;location;lat;lon;timestamp;P1;durP1;ratioP1;P2;durP2;ratioP2
16171;SDS011;8192;53.596;10.166;2023-11-19T00:00:58;35.60;;;31.90;;
16171;SDS011;8192;53.596;10.166;2023-11-19T00:03:28;37.57;;;33.67;;
16171;SDS011;8192;53.596;10.166;2023-11-19T00:05:57;36.60;;;32.80;;
16171;SDS011;8192;53.596;10.166;2023-11-19T00:08:24;35.20;;;31.80;;
16171;SDS011;8192;53.596;10.166;2023-11-19T00:10:52;35.23;;;31.77;;
16171;SDS011;8192;53.596;10.166;2023-11-19T00:13:19;34.37;;;30.97;;
16171;SDS011;8192;53.596;10.166;2023-11-19T00:15:46;35.27;;;31.67;;
16171;SDS011;8192;53.596;10.166;2023-11-19T00:18:13;35.73;;;32.13;;
16171;SDS011;8192;53.596;10.166;2023-11-19T00:20:40;34.03;;;30.67;;
16171;SDS011;8192;53.596;10.166;2023-11-19T00:23:11;33.20;;;30.03;;
16171;SDS011;8192;53.596;10.166;2023-11-19T00:25:38;33.00;;;29.80;;
16171;SDS011;8192;53.596;10.166;2023-11-19T00:28:05;33.73;;;30.43;;
16171;SDS011;8192;53.596;10.166;2023-11-19T00:30:31;33.20;;;30.10;;
16171;SDS011;8192;53.596;10.166;2023-11-19T00:32:58;32.73;;;29.67;;
16171;SDS011;8192;53.596;10.166;2023-11-19T00:35:25;32.93;;;29.70;;
16171;SDS011;8192;53.596;10.166;2023-11-19T00:37:52;31.50;;;28.70;;
16171;SDS011;8192;53.596;10.166;2023-11-19T00:40:21;31.50;;;28.70;;
16171;SDS011;8192;53.596;10.166;2023-11-19T00:42:48;31.00;;;28.30;;
16171;SDS011;8192;53.596;10.166;2023-11-19T00:45:16;31.50;;;28.70;;
16171;SDS011;8192;53.596;10.166;2023-11-19T00:47:43;31.27;;;28.43;;
16171;SDS011;8192;53.596;10.166;2023-11-19T00:50:10;30.50;;;27.90;;
16171;SDS011;8192;53.596;10.166;2023-11-19T00:52:38;30.40;;;27.80;;
16171;SDS011;8192;53.596;10.166;2023-11-19T00:55:05;31.37;;;28.47;;
16171;SDS011;8192;53.596;10.166;2023-11-19T00:57:34;29.50;;;26.90;;
16171;SDS011;8192;53.596;10.166;2023-11-19T01:00:01;29.80;;;27.23;;
16171;SDS011;8192;53.596;10.166;2023-11-19T01:02:34;28.77;;;26.47;;
16171;SDS011;8192;53.596;10.166;2023-11-19T01:05:01;29.43;;;26.73;;
16171;SDS011;8192;53.596;10.166;2023-11-19T01:07:28;27.07;;;24.63;;
16171;SDS011;8192;53.596;10.166;2023-11-19T01:09:55;29.77;;;27.20;;
16171;SDS011;8192;53.596;10.166;2023-11-19T01:12:22;28.53;;;26.13;;
16171;SDS011;8192;53.596;10.166;2023-11-19T01:14:50;28.77;;;26.17;;
16171;SDS011;8192;53.596;10.166;2023-11-19T01:17:17;26.97;;;24.73;;
16171;SDS011;8192;53.596;10.166;2023-11-19T01:19:44;28.37;;;25.97;;
16171;SDS011;8192;53.596;10.166;2023-11-19T01:22:11;28.13;;;25.83;;
16171;SDS011;8192;53.596;10.166;2023-11-19T01:24:38;26.83;;;24.73;;
16171;SDS011;8192;53.596;10.166;2023-11-19T01:27:05;27.37;;;25.17;;
16171;SDS011;8192;53.596;10.166;2023-11-19T01:29:32;26.80;;;24.57;;
16171;SDS011;8192;53.596;10.166;2023-11-19T01:32:01;27.70;;;25.50;;
16171;SDS011;8192;53.596;10.166;2023-11-19T01:34:28;27.37;;;25.30;;
16171;SDS011;8192;53.596;10.166;2023-11-19T01:36:54;26.87;;;24.87;;
16171;SDS011;8192;53.596;10.166;2023-11-19T01:39:21;26.17;;;24.17;;
16171;SDS011;8192;53.596;10.166;2023-11-19T01:41:48;26.23;;;24.30;;
16171;SDS011;8192;53.596;10.166;2023-11-19T01:44:15;27.37;;;25.27;;
16171;SDS011;8192;53.596;10.166;2023-11-19T01:46:43;27.20;;;25.03;;
16171;SDS011;8192;53.596;10.166;2023-11-19T01:49:14;25.97;;;24.07;;
16171;SDS011;8192;53.596;10.166;2023-11-19T01:51:41;25.13;;;23.23;;
16171;SDS011;8192;53.596;10.166;2023-11-19T01:54:09;26.73;;;24.57;;
16171;SDS011;8192;53.596;10.166;2023-11-19T01:56:36;25.93;;;23.93;;
16171;SDS011;8192;53.596;10.166;2023-11-19T01:59:06;25.77;;;23.87;;
16171;SDS011;8192;53.596;10.166;2023-11-19T02:01:34;26.07;;;23.80;;
16171;SDS011;8192;53.596;10.166;2023-11-19T02:04:04;27.40;;;25.20;;
16171;SDS011;8192;53.596;10.166;2023-11-19T02:06:34;25.43;;;23.63;;
16171;SDS011;8192;53.596;10.166;2023-11-19T02:09:03;23.47;;;21.73;;
16171;SDS011;8192;53.596;10.166;2023-11-19T02:11:32;22.70;;;21.20;;
16171;SDS011;8192;53.596;10.166;2023-11-19T02:14:00;23.13;;;21.53;;
16171;SDS011;8192;53.596;10.166;2023-11-19T02:16:28;24.30;;;22.70;;
16171;SDS011;8192;53.596;10.166;2023-11-19T02:18:57;23.50;;;21.97;;
16171;SDS011;8192;53.596;10.166;2023-11-19T02:21:24;23.40;;;21.90;;
16171;SDS011;8192;53.596;10.166;2023-11-19T02:23:52;22.50;;;21.00;;
16171;SDS011;8192;53.596;10.166;2023-11-19T02:26:22;23.37;;;21.77;;
16171;SDS011;8192;53.596;10.166;2023-11-19T02:28:56;23.40;;;21.80;;
16171;SDS011;8192;53.596;10.166;2023-11-19T02:31:23;23.37;;;21.77;;
16171;SDS011;8192;53.596;10.166;2023-11-19T02:33:52;22.43;;;20.93;;
16171;SDS011;8192;53.596;10.166;2023-11-19T02:36:20;23.63;;;22.03;;
16171;SDS011;8192;53.596;10.166;2023-11-19T02:38:47;23.63;;;22.03;;
16171;SDS011;8192;53.596;10.166;2023-11-19T02:41:14;23.67;;;22.07;;
16171;SDS011;8192;53.596;10.166;2023-11-19T02:43:41;23.17;;;21.57;;
16171;SDS011;8192;53.596;10.166;2023-11-19T02:46:10;23.67;;;22.07;;
16171;SDS011;8192;53.596;10.166;2023-11-19T02:48:37;23.67;;;22.07;;
16171;SDS011;8192;53.596;10.166;2023-11-19T02:51:04;24.70;;;23.00;;
16171;SDS011;8192;53.596;10.166;2023-11-19T02:53:34;23.77;;;22.17;;
16171;SDS011;8192;53.596;10.166;2023-11-19T02:56:02;24.40;;;22.70;;
16171;SDS011;8192;53.596;10.166;2023-11-19T02:58:40;24.00;;;22.40;;
16171;SDS011;8192;53.596;10.166;2023-11-19T03:01:11;23.40;;;21.80;;
16171;SDS011;8192;53.596;10.166;2023-11-19T03:03:48;22.77;;;21.17;;
16171;SDS011;8192;53.596;10.166;2023-11-19T03:06:19;24.27;;;22.57;;
16171;SDS011;8192;53.596;10.166;2023-11-19T03:08:47;24.40;;;22.70;;
16171;SDS011;8192;53.596;10.166;2023-11-19T03:11:14;24.70;;;23.00;;
16171;SDS011;8192;53.596;10.166;2023-11-19T03:13:42;24.23;;;22.53;;
16171;SDS011;8192;53.596;10.166;2023-11-19T03:16:10;24.53;;;22.83;;
16171;SDS011;8192;53.596;10.166;2023-11-19T03:18:37;23.60;;;22.00;;
16171;SDS011;8192;53.596;10.166;2023-11-19T03:21:05;24.20;;;22.60;;
16171;SDS011;8192;53.596;10.166;2023-11-19T03:23:32;25.23;;;23.53;;
16171;SDS011;8192;53.596;10.166;2023-11-19T03:26:00;23.87;;;22.27;;
16171;SDS011;8192;53.596;10.166;2023-11-19T03:28:28;24.10;;;22.43;;
16171;SDS011;8192;53.596;10.166;2023-11-19T03:30:55;23.80;;;22.20;;
16171;SDS011;8192;53.596;10.166;2023-11-19T03:33:24;23.93;;;22.33;;
16171;SDS011;8192;53.596;10.166;2023-11-19T03:35:52;23.70;;;22.10;;
16171;SDS011;8192;53.596;10.166;2023-11-19T03:38:21;24.00;;;22.40;;
16171;SDS011;8192;53.596;10.166;2023-11-19T03:40:48;24.40;;;22.80;;
16171;SDS011;8192;53.596;10.166;2023-11-19T03:43:15;23.73;;;22.13;;
16171;SDS011;8192;53.596;10.166;2023-11-19T03:45:44;23.53;;;21.93;;
16171;SDS011;8192;53.596;10.166;2023-11-19T03:48:11;24.10;;;22.40;;
16171;SDS011;8192;53.596;10.166;2023-11-19T03:50:39;24.57;;;22.87;;
16171;SDS011;8192;53.596;10.166;2023-11-19T03:53:06;24.53;;;22.83;;
16171;SDS011;8192;53.596;10.166;2023-11-19T03:55:33;23.70;;;22.10;;
16171;SDS011;8192;53.596;10.166;2023-11-19T03:58:01;24.63;;;22.93;;
16171;SDS011;8192;53.596;10.166;2023-11-19T04:00:27;25.20;;;23.50;;
16171;SDS011;8192;53.596;10.166;2023-11-19T04:02:54;24.47;;;22.77;;
16171;SDS011;8192;53.596;10.166;2023-11-19T04:05:21;24.90;;;23.20;;
16171;SDS011;8192;53.596;10.166;2023-11-19T04:07:50;25.30;;;23.60;;
16171;SDS011;8192;53.596;10.166;2023-11-19T04:10:17;26.00;;;24.20;;
16171;SDS011;8192;53.596;10.166;2023-11-19T04:12:43;24.57;;;22.87;;
16171;SDS011;8192;53.596;10.166;2023-11-19T04:15:11;23.53;;;21.93;;
16171;SDS011;8192;53.596;10.166;2023-11-19T04:17:38;23.33;;;21.73;;
16171;SDS011;8192;53.596;10.166;2023-11-19T04:20:05;23.73;;;22.13;;
16171;SDS011;8192;53.596;10.166;2023-11-19T04:22:36;23.83;;;22.17;;
16171;SDS011;8192;53.596;10.166;2023-11-19T04:25:06;25.27;;;23.57;;
16171;SDS011;8192;53.596;10.166;2023-11-19T04:27:33;25.60;;;23.90;;
16171;SDS011;8192;53.596;10.166;2023-11-19T04:30:00;26.13;;;24.33;;
16171;SDS011;8192;53.596;10.166;2023-11-19T04:32:28;25.13;;;23.43;;
16171;SDS011;8192;53.596;10.166;2023-11-19T04:34:58;24.90;;;23.20;;
16171;SDS011;8192;53.596;10.166;2023-11-19T04:37:25;25.03;;;23.33;;
16171;SDS011;8192;53.596;10.166;2023-11-19T04:39:52;24.13;;;22.53;;
16171;SDS011;8192;53.596;10.166;2023-11-19T04:42:20;24.00;;;22.30;;
16171;SDS011;8192;53.596;10.166;2023-11-19T04:44:49;24.03;;;22.33;;
16171;SDS011;8192;53.596;10.166;2023-11-19T04:47:16;24.90;;;23.20;;
16171;SDS011;8192;53.596;10.166;2023-11-19T04:49:43;24.70;;;23.00;;
16171;SDS011;8192;53.596;10.166;2023-11-19T04:52:10;24.33;;;22.63;;
16171;SDS011;8192;53.596;10.166;2023-11-19T04:54:40;24.43;;;22.83;;
16171;SDS011;8192;53.596;10.166;2023-11-19T04:57:08;24.60;;;23.00;;
16171;SDS011;8192;53.596;10.166;2023-11-19T04:59:37;24.10;;;22.50;;
16171;SDS011;8192;53.596;10.166;2023-11-19T05:02:04;24.30;;;22.60;;
16171;SDS011;8192;53.596;10.166;2023-11-19T05:04:31;23.80;;;22.13;;
16171;SDS011;8192;53.596;10.166;2023-11-19T05:06:58;24.23;;;22.53;;
16171;SDS011;8192;53.596;10.166;2023-11-19T05:09:25;23.40;;;21.70;;
16171;SDS011;8192;53.596;10.166;2023-11-19T05:11:52;23.57;;;21.87;;
16171;SDS011;8192;53.596;10.166;2023-11-19T05:14:19;24.33;;;22.63;;
16171;SDS011;8192;53.596;10.166;2023-11-19T05:16:48;24.47;;;22.83;;
16171;SDS011;8192;53.596;10.166;2023-11-19T05:19:15;24.43;;;22.67;;
16171;SDS011;8192;53.596;10.166;2023-11-19T05:21:42;26.37;;;24.27;;
16171;SDS011;8192;53.596;10.166;2023-11-19T05:24:09;23.93;;;22.27;;
16171;SDS011;8192;53.596;10.166;2023-11-19T05:26:36;24.40;;;22.70;;
16171;SDS011;8192;53.596;10.166;2023-11-19T05:29:04;24.83;;;23.13;;
16171;SDS011;8192;53.596;10.166;2023-11-19T05:31:31;23.60;;;21.90;;
16171;SDS011;8192;53.596;10.166;2023-11-19T05:33:59;23.33;;;21.73;;
16171;SDS011;8192;53.596;10.166;2023-11-19T05:36:26;23.13;;;21.53;;
16171;SDS011;8192;53.596;10.166;2023-11-19T05:38:54;22.83;;;21.23;;
16171;SDS011;8192;53.596;10.166;2023-11-19T05:41:21;23.20;;;21.60;;
16171;SDS011;8192;53.596;10.166;2023-11-19T05:43:47;23.10;;;21.50;;
16171;SDS011;8192;53.596;10.166;2023-11-19T05:46:14;23.77;;;22.13;;
16171;SDS011;8192;53.596;10.166;2023-11-19T05:48:41;23.27;;;21.67;;
16171;SDS011;8192;53.596;10.166;2023-11-19T05:51:12;23.77;;;22.17;;
16171;SDS011;8192;53.596;10.166;2023-11-19T05:53:40;23.13;;;21.53;;
16171;SDS011;8192;53.596;10.166;2023-11-19T05:56:06;23.60;;;22.00;;
16171;SDS011;8192;53.596;10.166;2023-11-19T05:58:35;23.80;;;22.10;;
16171;SDS011;8192;53.596;10.166;2023-11-19T06:01:02;23.37;;;21.77;;
16171;SDS011;8192;53.596;10.166;2023-11-19T06:03:32;23.40;;;21.80;;
16171;SDS011;8192;53.596;10.166;2023-11-19T06:05:59;22.73;;;21.13;;
16171;SDS011;8192;53.596;10.166;2023-11-19T06:08:27;23.60;;;21.93;;
16171;SDS011;8192;53.596;10.166;2023-11-19T06:10:55;23.37;;;21.77;;
16171;SDS011;8192;53.596;10.166;2023-11-19T06:13:22;23.90;;;22.20;;
16171;SDS011;8192;53.596;10.166;2023-11-19T06:15:50;23.17;;;21.53;;
16171;SDS011;8192;53.596;10.166;2023-11-19T06:18:17;23.80;;;22.20;;
16171;SDS011;8192;53.596;10.166;2023-11-19T06:20:45;23.30;;;21.70;;
16171;SDS011;8192;53.596;10.166;2023-11-19T06:23:12;23.07;;;21.47;;
16171;SDS011;8192;53.596;10.166;2023-11-19T06:25:40;23.30;;;21.70;;
16171;SDS011;8192;53.596;10.166;2023-11-19T06:28:07;22.83;;;21.33;;
16171;SDS011;8192;53.596;10.166;2023-11-19T06:30:34;22.23;;;20.73;;
16171;SDS011;8192;53.596;10.166;2023-11-19T06:33:01;23.40;;;21.80;;
16171;SDS011;8192;53.596;10.166;2023-11-19T06:35:29;23.20;;;21.60;;
16171;SDS011;8192;53.596;10.166;2023-11-19T06:38:01;21.87;;;20.37;;
16171;SDS011;8192;53.596;10.166;2023-11-19T06:40:29;22.80;;;21.30;;
16171;SDS011;8192;53.596;10.166;2023-11-19T06:42:58;23.30;;;21.70;;
16171;SDS011;8192;53.596;10.166;2023-11-19T06:45:25;23.17;;;21.57;;
16171;SDS011;8192;53.596;10.166;2023-11-19T06:47:52;23.23;;;21.63;;
16171;SDS011;8192;53.596;10.166;2023-11-19T06:50:19;24.60;;;22.90;;
16171;SDS011;8192;53.596;10.166;2023-11-19T06:52:45;23.90;;;22.20;;
16171;SDS011;8192;53.596;10.166;2023-11-19T06:55:12;23.97;;;22.37;;
16171;SDS011;8192;53.596;10.166;2023-11-19T06:57:39;24.10;;;22.40;;
16171;SDS011;8192;53.596;10.166;2023-11-19T07:00:09;23.97;;;22.37;;
16171;SDS011;8192;53.596;10.166;2023-11-19T07:02:36;23.73;;;22.13;;
16171;SDS011;8192;53.596;10.166;2023-11-19T07:05:04;25.47;;;23.67;;
16171;SDS011;8192;53.596;10.166;2023-11-19T07:07:33;25.07;;;23.37;;
16171;SDS011;8192;53.596;10.166;2023-11-19T07:10:00;24.60;;;22.90;;
16171;SDS011;8192;53.596;10.166;2023-11-19T07:12:28;24.00;;;22.40;;
16171;SDS011;8192;53.596;10.166;2023-11-19T07:14:55;24.80;;;23.10;;
16171;SDS011;8192;53.596;10.166;2023-11-19T07:17:23;24.05;;;22.45;;
16171;SDS011;8192;53.596;10.166;2023-11-19T07:19:50;23.13;;;21.53;;
16171;SDS011;8192;53.596;10.166;2023-11-19T07:22:17;23.55;;;21.95;;
16171;SDS011;8192;53.596;10.166;2023-11-19T07:24:45;23.20;;;21.60;;
16171;SDS011;8192;53.596;10.166;2023-11-19T07:27:12;23.10;;;21.40;;
16171;SDS011;8192;53.596;10.166;2023-11-19T07:29:39;25.40;;;23.60;;
16171;SDS011;8192;53.596;10.166;2023-11-19T07:32:06;23.10;;;21.50;;
16171;SDS011;8192;53.596;10.166;2023-11-19T07:34:34;22.38;;;20.88;;
16171;SDS011;8192;53.596;10.166;2023-11-19T07:37:01;22.08;;;20.58;;
16171;SDS011;8192;53.596;10.166;2023-11-19T07:39:29;22.45;;;20.95;;
16171;SDS011;8192;53.596;10.166;2023-11-19T07:41:56;22.05;;;20.55;;
16171;SDS011;8192;53.596;10.166;2023-11-19T07:44:23;22.55;;;20.95;;
16171;SDS011;8192;53.596;10.166;2023-11-19T07:46:53;23.70;;;22.00;;
16171;SDS011;8192;53.596;10.166;2023-11-19T07:49:22;22.83;;;21.23;;
16171;SDS011;8192;53.596;10.166;2023-11-19T07:51:50;22.88;;;21.27;;
16171;SDS011;8192;53.596;10.166;2023-11-19T07:54:18;22.30;;;20.80;;
16171;SDS011;8192;53.596;10.166;2023-11-19T07:56:46;22.17;;;20.67;;
16171;SDS011;8192;53.596;10.166;2023-11-19T07:59:14;22.05;;;20.55;;
16171;SDS011;8192;53.596;10.166;2023-11-19T08:01:41;22.63;;;21.07;;
16171;SDS011;8192;53.596;10.166;2023-11-19T08:04:09;22.10;;;20.60;;
16171;SDS011;8192;53.596;10.166;2023-11-19T08:06:36;21.83;;;20.33;;
16171;SDS011;8192;53.596;10.166;2023-11-19T08:09:05;21.80;;;20.30;;
16171;SDS011;8192;53.596;10.166;2023-11-19T08:11:38;21.92;;;20.42;;
16171;SDS011;8192;53.596;10.166;2023-11-19T08:14:05;21.40;;;19.90;;
16171;SDS011;8192;53.596;10.166;2023-11-19T08:16:33;21.95;;;20.45;;
16171;SDS011;8192;53.596;10.166;2023-11-19T08:19:01;21.58;;;20.08;;
16171;SDS011;8192;53.596;10.166;2023-11-19T08:21:28;21.13;;;19.65;;
16171;SDS011;8192;53.596;10.166;2023-11-19T08:23:55;21.33;;;19.83;;
16171;SDS011;8192;53.596;10.166;2023-11-19T08:26:24;21.98;;;20.48;;
16171;SDS011;8192;53.596;10.166;2023-11-19T08:28:51;21.65;;;20.15;;
16171;SDS011;8192;53.596;10.166;2023-11-19T08:31:18;22.65;;;21.05;;
16171;SDS011;8192;53.596;10.166;2023-11-19T08:33:45;22.20;;;20.70;;
16171;SDS011;8192;53.596;10.166;2023-11-19T08:36:15;22.10;;;20.60;;
16171;SDS011;8192;53.596;10.166;2023-11-19T08:38:43;21.52;;;20.02;;
16171;SDS011;8192;53.596;10.166;2023-11-19T08:41:09;21.80;;;20.30;;
16171;SDS011;8192;53.596;10.166;2023-11-19T08:43:38;21.50;;;20.02;;
16171;SDS011;8192;53.596;10.166;2023-11-19T08:46:09;22.58;;;21.08;;
16171;SDS011;8192;53.596;10.166;2023-11-19T08:48:36;21.95;;;20.45;;
16171;SDS011;8192;53.596;10.166;2023-11-19T08:51:03;21.73;;;20.23;;
16171;SDS011;8192;53.596;10.166;2023-11-19T08:53:30;21.73;;;20.23;;
16171;SDS011;8192;53.596;10.166;2023-11-19T08:55:57;21.75;;;20.25;;
16171;SDS011;8192;53.596;10.166;2023-11-19T08:58:25;21.40;;;19.90;;
16171;SDS011;8192;53.596;10.166;2023-11-19T09:00:53;22.13;;;20.52;;
16171;SDS011;8192;53.596;10.166;2023-11-19T09:03:20;20.95;;;19.45;;
16171;SDS011;8192;53.596;10.166;2023-11-19T09:05:49;21.55;;;20.05;;
16171;SDS011;8192;53.596;10.166;2023-11-19T09:08:16;22.20;;;20.60;;
16171;SDS011;8192;53.596;10.166;2023-11-19T09:10:43;21.15;;;19.65;;
16171;SDS011;8192;53.596;10.166;2023-11-19T09:13:11;21.80;;;20.30;;
16171;SDS011;8192;53.596;10.166;2023-11-19T09:15:37;21.13;;;19.63;;
16171;SDS011;8192;53.596;10.166;2023-11-19T09:18:06;20.88;;;19.42;;
16171;SDS011;8192;53.596;10.166;2023-11-19T09:20:39;22.27;;;20.67;;
16171;SDS011;8192;53.596;10.166;2023-11-19T09:23:06;20.83;;;19.35;;
16171;SDS011;8192;53.596;10.166;2023-11-19T09:25:34;20.58;;;19.17;;
16171;SDS011;8192;53.596;10.166;2023-11-19T09:28:01;21.73;;;20.00;;
16171;SDS011;8192;53.596;10.166;2023-11-19T09:30:27;21.20;;;19.70;;
16171;SDS011;8192;53.596;10.166;2023-11-19T09:32:55;22.48;;;20.67;;
16171;SDS011;8192;53.596;10.166;2023-11-19T09:35:24;21.60;;;20.10;;
16171;SDS011;8192;53.596;10.166;2023-11-19T09:37:51;21.00;;;19.50;;
16171;SDS011;8192;53.596;10.166;2023-11-19T09:40:18;21.35;;;19.85;;
16171;SDS011;8192;53.596;10.166;2023-11-19T09:42:45;21.80;;;20.30;;
16171;SDS011;8192;53.596;10.166;2023-11-19T09:45:14;21.63;;;20.13;;
16171;SDS011;8192;53.596;10.166;2023-11-19T09:47:43;21.85;;;20.30;;
16171;SDS011;8192;53.596;10.166;2023-11-19T09:50:13;20.95;;;19.45;;
16171;SDS011;8192;53.596;10.166;2023-11-19T09:52:44;22.15;;;20.45;;
16171;SDS011;8192;53.596;10.166;2023-11-19T09:55:11;20.52;;;19.02;;
16171;SDS011;8192;53.596;10.166;2023-11-19T09:57:38;20.25;;;18.75;;
16171;SDS011;8192;53.596;10.166;2023-11-19T10:00:07;20.48;;;19.08;;
16171;SDS011;8192;53.596;10.166;2023-11-19T10:02:35;21.48;;;19.98;;
16171;SDS011;8192;53.596;10.166;2023-11-19T10:05:04;23.33;;;21.02;;
16171;SDS011;8192;53.596;10.166;2023-11-19T10:07:32;22.40;;;20.67;;
16171;SDS011;8192;53.596;10.166;2023-11-19T10:10:01;21.50;;;20.00;;
16171;SDS011;8192;53.596;10.166;2023-11-19T10:12:29;21.35;;;19.85;;
16171;SDS011;8192;53.596;10.166;2023-11-19T10:14:57;21.20;;;19.70;;
16171;SDS011;8192;53.596;10.166;2023-11-19T10:17:27;20.75;;;19.25;;
16171;SDS011;8192;53.596;10.166;2023-11-19T10:19:55;21.40;;;19.90;;
16171;SDS011;8192;53.596;10.166;2023-11-19T10:22:22;20.83;;;19.35;;
16171;SDS011;8192;53.596;10.166;2023-11-19T10:24:50;20.98;;;19.58;;
16171;SDS011;8192;53.596;10.166;2023-11-19T10:27:18;21.02;;;19.52;;
16171;SDS011;8192;53.596;10.166;2023-11-19T10:29:45;21.00;;;19.60;;
16171;SDS011;8192;53.596;10.166;2023-11-19T10:32:13;20.90;;;19.52;;
16171;SDS011;8192;53.596;10.166;2023-11-19T10:34:41;20.92;;;19.52;;
16171;SDS011;8192;53.596;10.166;2023-11-19T10:37:08;21.20;;;19.70;;
16171;SDS011;8192;53.596;10.166;2023-11-19T10:39:54;20.63;;;19.15;;
16171;SDS011;8192;53.596;10.166;2023-11-19T10:42:22;20.98;;;19.50;;
16171;SDS011;8192;53.596;10.166;2023-11-19T10:44:49;20.80;;;19.30;;
16171;SDS011;8192;53.596;10.166;2023-11-19T10:47:17;20.30;;;18.90;;
16171;SDS011;8192;53.596;10.166;2023-11-19T10:49:45;20.85;;;19.35;;
16171;SDS011;8192;53.596;10.166;2023-11-19T10:52:12;20.48;;;19.08;;
16171;SDS011;8192;53.596;10.166;2023-11-19T10:54:44;20.38;;;18.98;;
16171;SDS011;8192;53.596;10.166;2023-11-19T10:57:13;19.80;;;18.40;;
16171;SDS011;8192;53.596;10.166;2023-11-19T10:59:47;20.80;;;19.40;;
16171;SDS011;8192;53.596;10.166;2023-11-19T11:02:19;20.50;;;19.10;;
16171;SDS011;8192;53.596;10.166;2023-11-19T11:04:50;21.08;;;19.67;;
16171;SDS011;8192;53.596;10.166;2023-11-19T11:07:18;23.20;;;21.58;;
16171;SDS011;8192;53.596;10.166;2023-11-19T11:09:47;21.05;;;19.65;;
16171;SDS011;8192;53.596;10.166;2023-11-19T11:12:15;20.98;;;19.58;;
16171;SDS011;8192;53.596;10.166;2023-11-19T11:14:50;23.77;;;21.98;;
16171;SDS011;8192;53.596;10.166;2023-11-19T11:17:19;21.15;;;19.65;;
16171;SDS011;8192;53.596;10.166;2023-11-19T11:19:50;20.95;;;19.55;;
16171;SDS011;8192;53.596;10.166;2023-11-19T11:22:17;20.70;;;19.30;;
16171;SDS011;8192;53.596;10.166;2023-11-19T11:24:58;21.02;;;19.52;;
16171;SDS011;8192;53.596;10.166;2023-11-19T11:27:52;21.42;;;19.95;;
16171;SDS011;8192;53.596;10.166;2023-11-19T11:30:39;22.13;;;20.52;;
16171;SDS011;8192;53.596;10.166;2023-11-19T11:33:21;21.90;;;20.40;;
16171;SDS011;8192;53.596;10.166;2023-11-19T11:36:05;22.05;;;20.55;;
16171;SDS011;8192;53.596;10.166;2023-11-19T11:38:40;22.17;;;20.67;;
16171;SDS011;8192;53.596;10.166;2023-11-19T11:41:18;21.55;;;20.05;;
16171;SDS011;8192;53.596;10.166;2023-11-19T11:43:46;22.55;;;20.95;;
16171;SDS011;8192;53.596;10.166;2023-11-19T11:49:25;21.50;;;20.00;;
16171;SDS011;8192;53.596;10.166;2023-11-19T11:51:58;21.23;;;19.73;;
16171;SDS011;8192;53.596;10.166;2023-11-19T11:54:29;20.20;;;18.80;;
16171;SDS011;8192;53.596;10.166;2023-11-19T11:57:02;22.20;;;20.70;;
16171;SDS011;8192;53.596;10.166;2023-11-19T11:59:36;24.60;;;22.70;;
16171;SDS011;8192;53.596;10.166;2023-11-19T12:02:15;22.77;;;21.27;;
16171;SDS011;8192;53.596;10.166;2023-11-19T12:04:42;22.38;;;20.88;;
16171;SDS011;8192;53.596;10.166;2023-11-19T12:07:13;22.15;;;20.65;;
16171;SDS011;8192;53.596;10.166;2023-11-19T12:09:47;21.92;;;20.42;;
16171;SDS011;8192;53.596;10.166;2023-11-19T12:12:18;23.40;;;21.55;;
16171;SDS011;8192;53.596;10.166;2023-11-19T12:15:00;22.40;;;20.85;;
16171;SDS011;8192;53.596;10.166;2023-11-19T12:20:16;22.60;;;21.00;;
16171;SDS011;8192;53.596;10.166;2023-11-19T12:22:45;22.02;;;20.50;;
16171;SDS011;8192;53.596;10.166;2023-11-19T12:25:14;24.42;;;21.27;;
16171;SDS011;8192;53.596;10.166;2023-11-19T12:27:43;21.17;;;19.67;;
16171;SDS011;8192;53.596;10.166;2023-11-19T12:30:11;21.25;;;19.75;;
16171;SDS011;8192;53.596;10.166;2023-11-19T12:32:39;20.92;;;19.48;;
16171;SDS011;8192;53.596;10.166;2023-11-19T12:35:09;21.35;;;19.95;;
16171;SDS011;8192;53.596;10.166;2023-11-19T12:37:40;20.80;;;19.40;;
16171;SDS011;8192;53.596;10.166;2023-11-19T12:40:12;19.92;;;18.63;;
16171;SDS011;8192;53.596;10.166;2023-11-19T12:42:40;21.02;;;19.63;;
16171;SDS011;8192;53.596;10.166;2023-11-19T12:45:08;20.75;;;19.35;;
16171;SDS011;8192;53.596;10.166;2023-11-19T12:47:36;21.85;;;20.25;;
16171;SDS011;8192;53.596;10.166;2023-11-19T12:50:03;20.30;;;18.90;;
16171;SDS011;8192;53.596;10.166;2023-11-19T12:52:33;20.00;;;18.60;;
16171;SDS011;8192;53.596;10.166;2023-11-19T12:55:01;19.80;;;18.40;;
16171;SDS011;8192;53.596;10.166;2023-11-19T12:57:35;20.25;;;18.85;;
16171;SDS011;8192;53.596;10.166;2023-11-19T13:00:04;20.20;;;18.90;;
16171;SDS011;8192;53.596;10.166;2023-11-19T13:02:47;19.92;;;18.63;;
16171;SDS011;8192;53.596;10.166;2023-11-19T13:05:22;20.90;;;19.50;;
16171;SDS011;8192;53.596;10.166;2023-11-19T13:08:02;19.40;;;18.10;;
16171;SDS011;8192;53.596;10.166;2023-11-19T13:10:30;19.98;;;18.67;;
16171;SDS011;8192;53.596;10.166;2023-11-19T13:13:01;19.40;;;18.10;;
16171;SDS011;8192;53.596;10.166;2023-11-19T13:15:30;20.05;;;18.67;;
16171;SDS011;8192;53.596;10.166;2023-11-19T13:17:58;19.50;;;18.20;;
16171;SDS011;8192;53.596;10.166;2023-11-19T13:20:27;19.85;;;18.55;;
16171;SDS011;8192;53.596;10.166;2023-11-19T13:22:55;20.38;;;18.98;;
16171;SDS011;8192;53.596;10.166;2023-11-19T13:25:23;20.08;;;18.70;;
16171;SDS011;8192;53.596;10.166;2023-11-19T13:27:50;19.88;;;18.58;;
16171;SDS011;8192;53.596;10.166;2023-11-19T13:30:18;19.42;;;18.13;;
16171;SDS011;8192;53.596;10.166;2023-11-19T13:32:45;20.08;;;18.67;;
16171;SDS011;8192;53.596;10.166;2023-11-19T13:35:12;19.65;;;18.35;;
16171;SDS011;8192;53.596;10.166;2023-11-19T13:37:39;19.52;;;18.23;;
16171;SDS011;8192;53.596;10.166;2023-11-19T13:40:07;19.45;;;18.15;;
16171;SDS011;8192;53.596;10.166;2023-11-19T13:42:39;19.65;;;18.30;;
16171;SDS011;8192;53.596;10.166;2023-11-19T13:45:07;20.20;;;18.80;;
16171;SDS011;8192;53.596;10.166;2023-11-19T13:47:39;19.42;;;18.05;;
16171;SDS011;8192;53.596;10.166;2023-11-19T13:50:08;19.23;;;17.92;;
16171;SDS011;8192;53.596;10.166;2023-11-19T13:52:36;19.80;;;18.50;;
16171;SDS011;8192;53.596;10.166;2023-11-19T13:55:04;19.63;;;18.30;;
16171;SDS011;8192;53.596;10.166;2023-11-19T13:57:33;19.85;;;18.45;;
16171;SDS011;8192;53.596;10.166;2023-11-19T14:00:01;19.73;;;18.33;;
16171;SDS011;8192;53.596;10.166;2023-11-19T14:02:31;20.70;;;19.25;;
16171;SDS011;8192;53.596;10.166;2023-11-19T14:04:58;20.20;;;18.80;;
16171;SDS011;8192;53.596;10.166;2023-11-19T14:07:25;19.45;;;18.05;;
16171;SDS011;8192;53.596;10.166;2023-11-19T14:09:52;19.25;;;17.95;;
16171;SDS011;8192;53.596;10.166;2023-11-19T14:12:19;20.05;;;18.65;;
16171;SDS011;8192;53.596;10.166;2023-11-19T14:14:47;19.90;;;18.50;;
16171;SDS011;8192;53.596;10.166;2023-11-19T14:17:15;19.63;;;18.23;;
16171;SDS011;8192;53.596;10.166;2023-11-19T14:19:43;19.75;;;18.35;;
16171;SDS011;8192;53.596;10.166;2023-11-19T14:22:12;19.65;;;18.25;;
16171;SDS011;8192;53.596;10.166;2023-11-19T14:24:39;19.48;;;18.08;;
16171;SDS011;8192;53.596;10.166;2023-11-19T14:27:07;19.88;;;18.38;;
16171;SDS011;8192;53.596;10.166;2023-11-19T14:29:34;20.33;;;18.88;;
16171;SDS011;8192;53.596;10.166;2023-11-19T14:32:02;19.70;;;18.30;;
16171;SDS011;8192;53.596;10.166;2023-11-19T14:34:30;19.83;;;18.42;;